Terminal Aerodrome Forecast
Issued by NWS

Home | Current Version | Previous Version | Text Only | Print | Product List | Glossary On
Versions: 1 2 3 4 5 6 7 8 9 10 11 12 13 14
000
FTUS45 KRIW 241700
TAFRKS
TAF
KRKS 241720Z 2418/2518 36006KT 5SM -RA BR SCT008 OVC016
      TEMPO 2418/2422 3SM RA BR BKN008
     FM242200 05011KT 5SM -RA BR SCT012 OVC025
     FM250300 05008KT 4SM -RASN BR SCT010 OVC020
     FM251600 28009KT P6SM SCT020 BKN050=

USA.gov is the U.S. government's official web portal to all federal, state and local government web resources and services.